createdAt,value
2022-08-14T00:01:50.223Z,76860.31
2022-08-14T00:04:34.436Z,76864.50
2022-08-14T00:07:06.077Z,76870.78
2022-08-14T00:09:34.567Z,76874.94
2022-08-14T00:12:24.268Z,76883.31
2022-08-14T00:14:54.881Z,76887.50
2022-08-14T00:17:22.608Z,76910.47
2022-08-14T00:23:36.174Z,76918.84
2022-08-14T00:26:06.055Z,76929.28
2022-08-14T00:28:36.042Z,76918.84
2022-08-14T00:31:04.992Z,76912.56
2022-08-14T00:33:51.423Z,76904.22
2022-08-14T00:36:39.095Z,76900.03
2022-08-14T00:39:06.537Z,76895.84
2022-08-14T00:41:36.081Z,76916.75
2022-08-14T00:44:05.434Z,76929.28
2022-08-14T00:46:33.368Z,76931.38
2022-08-14T00:49:00.777Z,76931.38
2022-08-14T00:51:37.702Z,76929.28
2022-08-14T00:54:11.007Z,76927.19
2022-08-14T00:56:49.108Z,76920.94
2022-08-14T00:59:16.190Z,76923.00
2022-08-14T01:01:43.093Z,76925.09
2022-08-14T01:04:51.618Z,76923.00
2022-08-14T01:06:58.647Z,76929.28
2022-08-14T01:09:26.618Z,76923.00
2022-08-14T01:11:57.167Z,76925.09
2022-08-14T01:14:29.930Z,76910.47
2022-08-14T01:16:56.870Z,76904.22
2022-08-14T01:19:43.309Z,76904.22
2022-08-14T01:22:12.562Z,76902.13
2022-08-14T01:24:39.577Z,76906.28
2022-08-14T01:27:07.314Z,76895.84
2022-08-14T01:29:59.005Z,76895.84
2022-08-14T01:32:24.666Z,76881.22
2022-08-14T01:35:19.905Z,76879.13
2022-08-14T01:37:44.649Z,76872.88
2022-08-14T01:40:15.513Z,76866.59
2022-08-14T01:42:46.506Z,76868.69
2022-08-14T01:45:17.762Z,76866.59
2022-08-14T01:47:51.831Z,76872.88
2022-08-14T01:50:29.609Z,76864.50
2022-08-14T01:52:59.618Z,76868.69
2022-08-14T01:55:31.690Z,76860.31
2022-08-14T01:58:01.884Z,76862.41
2022-08-14T02:00:56.856Z,76860.31
2022-08-14T02:03:53.477Z,76858.22
2022-08-14T02:06:32.885Z,76843.59
2022-08-14T02:09:02.633Z,76843.59
2022-08-14T02:11:38.951Z,76833.16
2022-08-14T02:14:08.665Z,76831.06
2022-08-14T02:16:41.584Z,76843.59
2022-08-14T02:19:14.797Z,76843.59
2022-08-14T02:21:49.098Z,76851.97
2022-08-14T02:24:40.304Z,76843.59
2022-08-14T02:28:24.027Z,76841.50
2022-08-14T02:30:03.250Z,76841.50
2022-08-14T02:32:37.516Z,76841.50
2022-08-14T02:35:12.753Z,76841.50
2022-08-14T02:37:47.877Z,76849.88
2022-08-14T02:40:32.507Z,76845.69
2022-08-14T02:43:07.752Z,76851.97
2022-08-14T02:45:44.639Z,76845.69
2022-08-14T02:49:03.907Z,76841.50
2022-08-14T02:51:10.905Z,76833.16
2022-08-14T02:53:42.423Z,76835.25
2022-08-14T02:56:30.164Z,76835.25
2022-08-14T02:59:05.433Z,76837.34
2022-08-14T03:01:43.114Z,76835.25
2022-08-14T03:04:15.278Z,76833.16
2022-08-14T03:06:56.807Z,76828.97
2022-08-14T03:10:25.633Z,76831.06
2022-08-14T03:12:31.758Z,76831.06
2022-08-14T03:15:19.731Z,76837.34
2022-08-14T03:17:56.572Z,76835.25
2022-08-14T03:20:29.012Z,76833.16
2022-08-14T03:23:03.280Z,76828.97
2022-08-14T03:25:37.701Z,76831.06
2022-08-14T03:28:14.746Z,76837.34
2022-08-14T03:31:04.544Z,76833.16
2022-08-14T03:33:51.770Z,76833.16
2022-08-14T03:37:39.128Z,76835.25
2022-08-14T03:39:30.701Z,76835.25
2022-08-14T03:42:01.822Z,76837.34
2022-08-14T03:45:19.754Z,76828.97
2022-08-14T03:47:55.868Z,76835.25
2022-08-14T03:50:31.627Z,76824.78
2022-08-14T03:53:05.142Z,76824.78
2022-08-14T03:55:36.699Z,76826.88
2022-08-14T03:58:12.998Z,76833.16
2022-08-14T04:00:56.083Z,76826.88
2022-08-14T04:03:27.115Z,76831.06
2022-08-14T04:06:02.059Z,76828.97
2022-08-14T04:08:34.942Z,76824.78
2022-08-14T04:11:08.014Z,76824.78
2022-08-14T04:13:42.559Z,76826.88
2022-08-14T04:16:20.354Z,76824.78
2022-08-14T04:18:55.250Z,76824.78
2022-08-14T04:21:39.854Z,76826.88
2022-08-14T04:24:23.939Z,76824.78
2022-08-14T04:27:00.097Z,76828.97
2022-08-14T04:29:36.974Z,76820.63
2022-08-14T04:33:10.489Z,76820.63
2022-08-14T04:35:07.788Z,76818.53
2022-08-14T04:37:58.231Z,76812.25
2022-08-14T04:40:55.466Z,76818.53
2022-08-14T04:43:39.615Z,76814.34
2022-08-14T04:46:09.344Z,76812.25
2022-08-14T04:48:43.714Z,76820.63
2022-08-14T04:51:46.222Z,76812.25
2022-08-14T04:54:14.110Z,76818.53
2022-08-14T04:56:46.443Z,76818.53
2022-08-14T04:59:18.589Z,76818.53
2022-08-14T05:01:57.151Z,76822.69
2022-08-14T05:04:39.802Z,76826.88
2022-08-14T05:07:15.172Z,76824.78
2022-08-14T05:09:47.783Z,76824.78
2022-08-14T05:13:13.449Z,76828.97
2022-08-14T05:15:10.563Z,76822.69
2022-08-14T05:17:58.691Z,76820.63
2022-08-14T05:21:58.022Z,76828.97
2022-08-14T05:23:22.905Z,76835.25
2022-08-14T05:25:56.741Z,76837.34
2022-08-14T05:28:28.627Z,76854.06
2022-08-14T05:31:01.966Z,76860.31
2022-08-14T05:33:34.290Z,76866.59
2022-08-14T05:36:16.428Z,76874.94
2022-08-14T05:38:50.303Z,76874.94
2022-08-14T05:41:51.026Z,76887.50
2022-08-14T05:44:16.253Z,76889.59
2022-08-14T05:46:43.034Z,76887.50
2022-08-14T05:49:14.485Z,76883.31
2022-08-14T05:51:41.838Z,76885.41
2022-08-14T05:54:25.364Z,76881.22
2022-08-14T05:56:55.800Z,76877.03
2022-08-14T05:59:36.758Z,76860.31
2022-08-14T06:02:21.811Z,76854.06
2022-08-14T06:04:51.196Z,76851.97
2022-08-14T06:07:23.264Z,76847.78
2022-08-14T06:10:00.298Z,76839.41
2022-08-14T06:12:56.648Z,76828.97
2022-08-14T06:15:36.116Z,76822.69
2022-08-14T06:18:17.688Z,76808.06
2022-08-14T06:20:48.129Z,76803.91
2022-08-14T06:23:20.299Z,76797.63
2022-08-14T06:25:52.857Z,76791.34
2022-08-14T06:28:28.630Z,76780.91
2022-08-14T06:31:06.711Z,76780.91
2022-08-14T06:35:01.317Z,76766.28
2022-08-14T06:36:38.102Z,76762.09
2022-08-14T06:39:14.903Z,76757.91
2022-08-14T06:41:59.421Z,76741.19
2022-08-14T06:44:33.367Z,76724.47
2022-08-14T06:47:10.016Z,76724.47
2022-08-14T06:49:44.252Z,76716.13
2022-08-14T06:52:20.312Z,76716.13
2022-08-14T06:55:02.905Z,76701.50
2022-08-14T06:58:04.461Z,76688.97
2022-08-14T07:01:06.676Z,76686.88
2022-08-14T07:04:03.785Z,76676.41
2022-08-14T07:06:46.568Z,76670.16
2022-08-14T07:12:05.334Z,76640.91
2022-08-14T07:14:42.717Z,76642.97
2022-08-14T07:17:09.472Z,76624.19
2022-08-14T07:19:40.025Z,76620.00
2022-08-14T07:22:17.766Z,76586.56
2022-08-14T07:24:55.433Z,76563.56
2022-08-14T07:27:33.466Z,76536.41
2022-08-14T07:30:05.365Z,76528.06
2022-08-14T07:32:42.323Z,76532.22
2022-08-14T07:35:12.088Z,76519.69
2022-08-14T07:37:42.305Z,76500.88
2022-08-14T07:40:12.983Z,76490.44
2022-08-14T07:42:51.203Z,76475.81
2022-08-14T07:45:25.463Z,76469.53
2022-08-14T07:48:06.315Z,76457.00
2022-08-14T07:50:39.473Z,76438.19
2022-08-14T07:53:12.924Z,76419.38
2022-08-14T07:55:45.499Z,76419.38
2022-08-14T07:58:38.931Z,76419.38
2022-08-14T08:01:27.569Z,76402.66
2022-08-14T08:04:03.330Z,76379.69
2022-08-14T08:06:35.156Z,76360.88
2022-08-14T08:09:05.852Z,76360.88
2022-08-14T08:11:37.284Z,76350.44
2022-08-14T08:14:10.752Z,76335.81
2022-08-14T08:16:46.286Z,76333.72
2022-08-14T08:19:14.388Z,76319.09
2022-08-14T08:21:45.668Z,76306.56
2022-08-14T08:24:22.914Z,76289.84
2022-08-14T08:26:51.964Z,76283.56
2022-08-14T08:29:40.356Z,76266.84
2022-08-14T08:32:17.133Z,76266.84
2022-08-14T08:34:48.555Z,76266.84
2022-08-14T08:37:16.003Z,76256.41
2022-08-14T08:40:03.387Z,76245.97
2022-08-14T08:42:38.170Z,76222.97
2022-08-14T08:45:11.811Z,76212.53
2022-08-14T08:47:40.381Z,76233.41
2022-08-14T08:50:22.994Z,76218.78
2022-08-14T08:52:51.633Z,76208.34
2022-08-14T08:55:37.657Z,76181.19
2022-08-14T08:58:20.327Z,76162.38
2022-08-14T09:00:56.570Z,76162.38
2022-08-14T09:03:27.590Z,76160.28
2022-08-14T09:05:56.170Z,76139.38
2022-08-14T09:08:32.743Z,76124.75
2022-08-14T09:11:19.486Z,76124.75
2022-08-14T09:13:52.106Z,76103.88
2022-08-14T09:16:24.872Z,76099.69
2022-08-14T09:18:53.187Z,76089.25
2022-08-14T09:21:20.973Z,76076.72
2022-08-14T09:24:29.600Z,76057.91
2022-08-14T09:26:39.633Z,76055.81
2022-08-14T09:29:06.802Z,76047.47
2022-08-14T09:31:42.584Z,76043.28
2022-08-14T09:34:34.620Z,76030.75
2022-08-14T09:37:18.947Z,76030.75
2022-08-14T09:40:10.023Z,76016.13
2022-08-14T09:42:51.213Z,76001.50
2022-08-14T09:45:30.525Z,75993.13
2022-08-14T09:48:18.945Z,75986.88
2022-08-14T09:50:56.054Z,75965.97
2022-08-14T09:54:12.765Z,75965.97
2022-08-14T09:56:30.505Z,75951.34
2022-08-14T09:58:59.229Z,75945.06
2022-08-14T10:01:35.275Z,75903.28
2022-08-14T10:04:06.962Z,75894.94
2022-08-14T10:06:53.514Z,75888.66
2022-08-14T10:09:20.333Z,75882.41
2022-08-14T10:11:59.048Z,75871.94
2022-08-14T10:14:34.887Z,75859.41
2022-08-14T10:17:06.069Z,75851.06
2022-08-14T10:19:35.523Z,75840.59
2022-08-14T10:23:14.343Z,75832.25
2022-08-14T10:25:10.341Z,75830.16
2022-08-14T10:27:36.815Z,75811.34
2022-08-14T10:30:04.720Z,75796.72
2022-08-14T10:32:49.821Z,75780.03
2022-08-14T10:35:20.235Z,75784.19
2022-08-14T10:37:51.170Z,75775.84
2022-08-14T10:40:36.989Z,75750.78
2022-08-14T10:43:31.825Z,75736.16
2022-08-14T10:46:58.963Z,75727.78
2022-08-14T10:49:03.952Z,75708.97
2022-08-14T10:51:34.295Z,75679.72
2022-08-14T10:54:26.326Z,75679.72
2022-08-14T10:56:57.315Z,75686.00
2022-08-14T10:59:30.823Z,75667.19
2022-08-14T11:01:59.880Z,75665.09
2022-08-14T11:04:30.858Z,75688.09
2022-08-14T11:06:58.525Z,75700.63
2022-08-14T11:09:26.578Z,75702.72
2022-08-14T11:12:34.983Z,75681.81
2022-08-14T11:15:02.664Z,75665.09
2022-08-14T11:17:32.386Z,75658.84
2022-08-14T11:20:00.985Z,75646.31
2022-08-14T11:22:52.306Z,75604.53
2022-08-14T11:25:21.246Z,75623.31
2022-08-14T11:27:49.174Z,75633.78
2022-08-14T11:30:49.039Z,75642.13
2022-08-14T11:33:09.386Z,75665.09
2022-08-14T11:35:47.883Z,75633.78
2022-08-14T11:38:18.688Z,75598.25
2022-08-14T11:40:47.110Z,75577.38
2022-08-14T11:43:18.086Z,75539.75
2022-08-14T11:45:52.105Z,75531.41
2022-08-14T11:48:59.103Z,75520.97
2022-08-14T11:51:24.047Z,75527.22
2022-08-14T11:53:53.993Z,75514.69
2022-08-14T11:56:25.350Z,75518.88
2022-08-14T11:58:53.977Z,75497.97
2022-08-14T12:01:29.117Z,75477.09
2022-08-14T12:04:31.779Z,75483.34
2022-08-14T12:06:58.954Z,75479.19
2022-08-14T12:09:30.769Z,75472.91
2022-08-14T12:11:59.600Z,75493.78
2022-08-14T12:14:35.509Z,75470.81
2022-08-14T12:17:12.187Z,75445.75
2022-08-14T12:20:06.825Z,75424.84
2022-08-14T12:22:44.197Z,75403.97
2022-08-14T12:25:19.214Z,75389.34
2022-08-14T12:27:53.404Z,75383.06
2022-08-14T12:30:39.339Z,75372.63
2022-08-14T12:33:19.057Z,75383.06
2022-08-14T12:35:46.179Z,75387.25
2022-08-14T12:38:19.504Z,75387.25
2022-08-14T12:40:56.133Z,75381.00
2022-08-14T12:43:22.858Z,75366.38
2022-08-14T12:45:52.289Z,75362.19
2022-08-14T12:48:21.423Z,75349.66
2022-08-14T12:50:58.101Z,75351.75
2022-08-14T12:53:38.380Z,75332.94
2022-08-14T12:56:21.538Z,75355.91
2022-08-14T12:58:51.863Z,75332.94
2022-08-14T13:01:24.821Z,75339.22
2022-08-14T13:04:10.449Z,75335.03
2022-08-14T13:06:44.191Z,75347.56
2022-08-14T13:09:13.238Z,75314.13
2022-08-14T13:11:45.106Z,75274.44
2022-08-14T13:14:17.975Z,75284.88
2022-08-14T13:16:45.631Z,75309.97
2022-08-14T13:19:18.409Z,75297.44
2022-08-14T13:21:58.457Z,75274.44
2022-08-14T13:24:34.904Z,75276.53
2022-08-14T13:27:04.377Z,75270.28
2022-08-14T13:29:33.699Z,75251.47
2022-08-14T13:32:00.880Z,75230.56
2022-08-14T13:34:28.937Z,75276.53
2022-08-14T13:37:04.070Z,75301.59
2022-08-14T13:39:36.226Z,75276.53
2022-08-14T13:42:13.879Z,75284.88
2022-08-14T13:44:42.757Z,75295.34
2022-08-14T13:47:10.277Z,75322.50
2022-08-14T13:49:40.153Z,75335.03
2022-08-14T13:52:48.206Z,75353.84
2022-08-14T13:55:04.259Z,75328.75
2022-08-14T13:57:32.810Z,75324.59
2022-08-14T14:00:07.041Z,75293.25
2022-08-14T14:02:35.638Z,75280.72
2022-08-14T14:05:04.221Z,75272.34
2022-08-14T14:07:32.128Z,75264.00
2022-08-14T14:10:06.218Z,75278.63
2022-08-14T14:12:41.389Z,75293.25
2022-08-14T14:15:11.807Z,75299.50
2022-08-14T14:17:39.702Z,75295.34
2022-08-14T14:20:34.038Z,75309.97
2022-08-14T14:23:03.412Z,75320.41
2022-08-14T14:25:46.507Z,75299.50
2022-08-14T14:28:16.908Z,75301.59
2022-08-14T14:30:54.619Z,75284.88
2022-08-14T14:33:45.306Z,75272.34
2022-08-14T14:36:13.964Z,75261.91
2022-08-14T14:38:44.240Z,75247.28
2022-08-14T14:41:14.783Z,75259.81
2022-08-14T14:43:45.398Z,75282.81
2022-08-14T14:46:16.463Z,75291.16
2022-08-14T14:48:46.463Z,75272.34
2022-08-14T14:51:14.640Z,75272.34
2022-08-14T14:53:43.080Z,75251.47
2022-08-14T14:56:51.156Z,75255.66
2022-08-14T14:58:57.659Z,75264.00
2022-08-14T15:01:25.340Z,75266.09
2022-08-14T15:03:54.088Z,75255.66
2022-08-14T15:06:22.648Z,75249.38
2022-08-14T15:08:58.338Z,75226.41
2022-08-14T15:11:30.407Z,75215.94
2022-08-14T15:13:58.981Z,75180.44
2022-08-14T15:16:27.487Z,75195.06
2022-08-14T15:18:54.034Z,75186.72
2022-08-14T15:21:20.540Z,75190.88
2022-08-14T15:23:48.136Z,75195.06
2022-08-14T15:26:24.069Z,75201.34
2022-08-14T15:29:05.034Z,75195.06
2022-08-14T15:31:34.912Z,75188.78
2022-08-14T15:34:46.111Z,75186.72
2022-08-14T15:36:58.857Z,75186.72
2022-08-14T15:39:29.404Z,75170.00
2022-08-14T15:42:02.196Z,75182.53
2022-08-14T15:44:36.546Z,75178.34
2022-08-14T15:47:10.918Z,75174.19
2022-08-14T15:49:39.749Z,75165.81
2022-08-14T15:52:07.200Z,75167.91
2022-08-14T15:54:34.996Z,75170.00
2022-08-14T15:57:09.804Z,75172.09
2022-08-14T15:59:57.010Z,75184.63
2022-08-14T16:02:27.949Z,75199.25
2022-08-14T16:04:55.478Z,75195.06
2022-08-14T16:07:25.306Z,75215.94
2022-08-14T16:10:11.845Z,75228.50
2022-08-14T16:12:45.974Z,75224.31
2022-08-14T16:15:15.910Z,75226.41
2022-08-14T16:17:44.797Z,75226.41
2022-08-14T16:20:12.640Z,75238.94
2022-08-14T16:23:00.564Z,75247.28
2022-08-14T16:25:34.560Z,75257.72
2022-08-14T16:28:03.443Z,75278.63
2022-08-14T16:30:35.467Z,75278.63
2022-08-14T16:33:04.647Z,75289.06
2022-08-14T16:35:43.186Z,75305.78
2022-08-14T16:38:46.435Z,75324.59
2022-08-14T16:41:21.984Z,75339.22
2022-08-14T16:43:59.283Z,75360.09
2022-08-14T16:46:27.256Z,75358.00
2022-08-14T16:48:58.180Z,75368.44
2022-08-14T16:51:25.649Z,75378.91
2022-08-14T16:53:55.704Z,75397.69
2022-08-14T16:56:25.524Z,75399.78
2022-08-14T16:59:06.751Z,75391.44
2022-08-14T17:01:35.999Z,75385.16
2022-08-14T17:04:09.295Z,75391.44
2022-08-14T17:06:55.044Z,75393.53
2022-08-14T17:09:43.447Z,75397.69
2022-08-14T17:12:29.084Z,75401.88
2022-08-14T17:15:11.227Z,75412.31
2022-08-14T17:17:43.634Z,75412.31
2022-08-14T17:21:00.438Z,75414.41
2022-08-14T17:23:11.088Z,75410.22
2022-08-14T17:25:50.736Z,75420.69
2022-08-14T17:28:49.996Z,75429.03
2022-08-14T17:31:12.816Z,75435.31
2022-08-14T17:33:52.510Z,75435.31
2022-08-14T17:36:24.578Z,75449.94
2022-08-14T17:39:09.239Z,75458.28
2022-08-14T17:41:43.342Z,75470.81
2022-08-14T17:44:12.318Z,75470.81
2022-08-14T17:46:50.129Z,75477.09
2022-08-14T17:49:28.242Z,75479.19
2022-08-14T17:52:07.357Z,75483.34
2022-08-14T17:54:45.342Z,75487.53
2022-08-14T17:57:18.085Z,75491.72
2022-08-14T17:59:48.193Z,75497.97
2022-08-14T18:02:16.758Z,75500.06
2022-08-14T18:04:46.978Z,75506.34
2022-08-14T18:08:30.984Z,75504.25
2022-08-14T18:10:52.957Z,75514.69
2022-08-14T18:12:56.647Z,75523.03
2022-08-14T18:15:23.240Z,75525.13
2022-08-14T18:18:08.913Z,75533.50
2022-08-14T18:23:14.555Z,75548.13
2022-08-14T18:25:47.352Z,75548.13
2022-08-14T18:28:18.220Z,75552.28
2022-08-14T18:31:20.668Z,75554.38
2022-08-14T18:33:58.783Z,75564.84
2022-08-14T18:36:55.377Z,75569.00
2022-08-14T18:39:29.518Z,75581.53
2022-08-14T18:42:23.202Z,75581.53
2022-08-14T18:44:50.664Z,75585.72
2022-08-14T18:47:21.200Z,75596.16
2022-08-14T18:50:27.274Z,75602.44
2022-08-14T18:52:53.219Z,75604.53
2022-08-14T18:55:20.683Z,75617.06
2022-08-14T18:58:27.714Z,75619.16
2022-08-14T19:00:55.913Z,75625.41
2022-08-14T19:03:33.941Z,75627.50
2022-08-14T19:06:05.972Z,75640.03
2022-08-14T19:08:38.491Z,75644.22
2022-08-14T19:11:06.904Z,75648.41
2022-08-14T19:13:48.546Z,75648.41
2022-08-14T19:16:23.765Z,75650.47
2022-08-14T19:19:00.017Z,75656.75
2022-08-14T19:21:36.070Z,75663.03
2022-08-14T19:24:27.585Z,75669.28
2022-08-14T19:27:23.655Z,75675.56
2022-08-14T19:29:51.987Z,75675.56
2022-08-14T19:32:40.776Z,75679.72
2022-08-14T19:35:19.443Z,75675.56
2022-08-14T19:37:57.050Z,75681.81
2022-08-14T19:40:39.921Z,75683.91
2022-08-14T19:43:09.346Z,75692.28
2022-08-14T19:45:37.715Z,75694.34
2022-08-14T19:48:09.952Z,75692.28
2022-08-14T19:50:41.298Z,75696.44
2022-08-14T19:53:17.426Z,75698.53
2022-08-14T19:55:54.868Z,75704.81
2022-08-14T19:58:27.967Z,75702.72
2022-08-14T20:00:57.004Z,75706.91
2022-08-14T20:03:24.831Z,75708.97
2022-08-14T20:06:00.599Z,75713.16
2022-08-14T20:11:01.102Z,75717.34
2022-08-14T20:12:02.093Z,75713.16
2022-08-14T20:14:29.409Z,75721.53
2022-08-14T20:17:03.222Z,75725.69
2022-08-14T20:19:37.996Z,75729.88
2022-08-14T20:22:37.426Z,75727.78
2022-08-14T20:24:55.234Z,75731.97
2022-08-14T20:27:33.690Z,75736.16
2022-08-14T20:30:29.009Z,75725.69
2022-08-14T20:33:01.767Z,75738.22
2022-08-14T20:35:52.227Z,75750.78
2022-08-14T20:38:29.307Z,75746.59
2022-08-14T20:41:10.818Z,75752.84
2022-08-14T20:43:59.492Z,75765.41
2022-08-14T20:46:29.384Z,75761.22
2022-08-14T20:49:02.344Z,75767.47
2022-08-14T20:51:43.405Z,75769.56
2022-08-14T20:54:34.170Z,75777.94
2022-08-14T20:57:15.575Z,75780.03
2022-08-14T20:59:53.257Z,75773.75
2022-08-14T21:02:34.703Z,75780.03
2022-08-14T21:05:17.253Z,75786.28
2022-08-14T21:07:51.344Z,75784.19
2022-08-14T21:10:33.717Z,75788.38
2022-08-14T21:13:26.288Z,75786.28
2022-08-14T21:15:57.844Z,75796.72
2022-08-14T21:18:47.361Z,75803.00
2022-08-14T21:21:18.725Z,75807.19
2022-08-14T21:23:55.475Z,75807.19
2022-08-14T21:26:50.582Z,75805.09
2022-08-14T21:29:13.455Z,75811.34
2022-08-14T21:31:40.759Z,75813.44
2022-08-14T21:34:31.143Z,75817.63
2022-08-14T21:36:55.962Z,75821.81
2022-08-14T21:39:24.032Z,75821.81
2022-08-14T21:41:58.645Z,75825.97
2022-08-14T21:44:42.896Z,75836.44
2022-08-14T21:47:12.090Z,75832.25
2022-08-14T21:49:40.217Z,75838.53
2022-08-14T21:52:49.559Z,75842.69
2022-08-14T21:55:08.890Z,75842.69
2022-08-14T21:57:56.574Z,75840.59
2022-08-14T22:00:35.607Z,75851.06
2022-08-14T22:03:08.904Z,75853.16
2022-08-14T22:05:38.383Z,75853.16
2022-08-14T22:08:06.569Z,75851.06
2022-08-14T22:10:34.892Z,75855.22
2022-08-14T22:13:01.999Z,75855.22
2022-08-14T22:15:30.123Z,75855.22
2022-08-14T22:17:58.315Z,75855.22
2022-08-14T22:20:28.288Z,75863.59
2022-08-14T22:22:56.855Z,75848.97
2022-08-14T22:25:32.908Z,75859.41
2022-08-14T22:28:01.290Z,75848.97
2022-08-14T22:30:27.825Z,75851.06
2022-08-14T22:32:57.571Z,75844.78
2022-08-14T22:35:25.416Z,75853.16
2022-08-14T22:38:01.623Z,75846.88
2022-08-14T22:41:02.733Z,75842.69
2022-08-14T22:43:31.199Z,75846.88
2022-08-14T22:45:58.323Z,75848.97
2022-08-14T22:48:29.594Z,75853.16
2022-08-14T22:50:56.249Z,75844.78
2022-08-14T22:53:23.858Z,75851.06
2022-08-14T22:55:55.709Z,75844.78
2022-08-14T22:58:30.299Z,75842.69
2022-08-14T23:01:00.132Z,75853.16
2022-08-14T23:03:27.207Z,75851.06
2022-08-14T23:05:55.340Z,75853.16
2022-08-14T23:08:57.705Z,75863.59
2022-08-14T23:11:10.406Z,75863.59
2022-08-14T23:13:43.607Z,75865.69
2022-08-14T23:16:20.461Z,75861.50
2022-08-14T23:18:54.157Z,75861.50
2022-08-14T23:21:24.414Z,75863.59
2022-08-14T23:23:55.237Z,75859.41
2022-08-14T23:26:48.614Z,75869.84
2022-08-14T23:29:11.449Z,75869.84
2022-08-14T23:31:39.368Z,75871.94
2022-08-14T23:34:08.582Z,75874.03
2022-08-14T23:36:53.505Z,75890.75
2022-08-14T23:39:30.025Z,75903.28
2022-08-14T23:41:57.518Z,75909.56
2022-08-14T23:44:32.146Z,75934.63
2022-08-14T23:47:05.445Z,75932.53
2022-08-14T23:49:56.512Z,75936.72
2022-08-14T23:52:51.016Z,75932.53
2022-08-14T23:55:11.393Z,75930.44
2022-08-14T23:57:43.791Z,75924.19
